Latest Coastal Weather Observations for Albany Airport

IDW60701

Issued at 5:25 am WST Tuesday 21 October 2014 (issued every 10 minutes, with the page automatically refreshed every 10 minutes)

About coastal observations | Map of coastal stations | Coastal observations for WA | Marine services | Other Formats
Station Details ID: 009999 Name: ALBANY AIRPORT Lat: -34.94 Lon: 117.82 Height: 68.4 m
Data from the previous 72 hours. | See also: Recent months at Albany Airport
Date/Time
WST
Temp

°C
Wind Pressure Rain
since 9am
mm
Weather Cloud Vis
km
Sea
Height
m
Swell
Dir
 
Speed
knots
Gust
knots
hPa Trend Height
m
Period
s
Dir
21/05:00am 11.8 NW 6 8 1020.5 - 1.0 - Cloudy 10 - - - -
21/04:30am 11.9 NW 6 7 1020.2 - 1.0 - Cloudy 10 - - - -
21/04:00am 11.9 WNW 6 7 1020.0 - 1.0 - Cloudy 10 - - - -
21/03:30am 12.0 WNW 5 6 1019.8 - 1.0 - Cloudy 10 - - - -
21/03:00am 12.0 WNW 5 6 1019.7 - 1.0 - Cloudy 10 - - - -
21/02:30am 11.9 WNW 5 7 1019.6 - 1.0 - Cloudy 10 - - - -
21/02:00am 11.6 WNW 5 7 1019.5 - 1.0 - Cloudy 10 - - - -
21/01:30am 11.1 WNW 6 7 1019.2 - 1.0 - Cloudy 10 - - - -
21/01:00am 9.9 NW 5 6 1019.1 - 1.0 - Partly cloudy 10 - - - -
21/12:30am 10.9 W 1 3 1019.1 - 1.0 - - 10 - - - -
21/12:00am 12.1 WSW 4 5 1019.5 - 1.0 - Partly cloudy 10 - - - -
 
Date/Time
WST
Temp

°C
Wind Pressure Rain
since 9am
mm
Weather Cloud Vis
km
Sea
Height
m
Swell
Dir
 
Speed
knots
Gust
knots
hPa Trend Height
m
Period
s
Dir
20/11:30pm 12.4 W 7 8 1019.4 - 1.0 - Partly cloudy 10 - - - -
20/11:00pm 12.4 WSW 6 8 1019.3 - 1.0 - Partly cloudy 10 - - - -
20/10:30pm 12.3 W 6 8 1019.7 - 1.0 - Partly cloudy 10 - - - -
20/10:00pm 12.6 W 7 8 1019.8 - 1.0 - Partly cloudy 10 - - - -
20/09:30pm 12.7 WSW 9 14 1019.7 - 1.0 - Partly cloudy 10 - - - -
20/09:00pm 12.9 SW 9 11 1019.8 - 1.0 - Cloudy 10 - - - -
20/08:59pm 12.9 SW 8 11 1019.7 - 1.0 - Partly cloudy 10 - - - -
20/08:45pm 12.9 WSW 9 14 1019.8 - 1.0 - Partly cloudy 6 - - - -
20/08:30pm 13.2 W 7 9 1019.6 - 1.0 - Cloudy 10 - - - -
20/08:00pm 13.2 WSW 9 12 1019.6 - 1.0 - Partly cloudy 10 - - - -
20/07:30pm 13.1 WSW 8 11 1019.0 - 1.0 - Partly cloudy 10 - - - -
20/07:20pm 13.1 WSW 8 10 1018.7 - 1.0 - Partly cloudy 10 - - - -
20/07:15pm 13.2 WSW 9 12 1018.7 - 1.0 - Partly cloudy 10 - - - -
20/07:00pm 13.4 WSW 10 13 1018.7 - 0.6 - Partly cloudy 5 - - - -
20/06:59pm 13.4 WSW 10 13 1018.6 - 0.6 - Partly cloudy 6 - - - -
20/06:58pm 13.4 WSW 10 13 1018.6 - 0.6 - Partly cloudy 8 - - - -
20/06:57pm 13.4 WSW 10 14 1018.6 - 0.6 - Partly cloudy 10 - - - -
20/06:41pm 13.6 WSW 10 15 1018.4 - 0.6 - Partly cloudy 4 - - - -
20/06:37pm 13.8 WSW 11 16 1018.3 - 0.6 - Partly cloudy 6 - - - -
20/06:30pm 13.8 WSW 11 14 1018.2 - 0.6 - Partly cloudy 10 - - - -
20/06:24pm 13.8 WSW 12 16 1018.1 - 0.6 - Partly cloudy 10 - - - -
20/06:00pm 14.0 WSW 11 19 1017.9 - 0.6 - Cloudy 8 - - - -
20/05:51pm 14.2 SW 13 19 1017.7 - 0.6 - Partly cloudy 10 - - - -
20/05:47pm 14.2 SW 11 17 1017.6 - 0.6 - Partly cloudy 10 - - - -
20/05:30pm 14.2 WSW 13 19 1017.3 - 0.6 Showers Mostly clear 6 - - - -
20/05:08pm 14.7 WSW 14 21 1017.0 - 0.6 - Partly cloudy 6 - - - -
20/05:00pm 15.4 WSW 15 21 1016.9 - 0.6 Showers Mostly clear 10 - - - -
20/04:30pm 15.3 WSW 14 19 1016.6 - 0.6 - Mostly clear 10 - - - -
20/04:00pm 15.2 WSW 16 22 1016.2 - 0.6 Showers Mostly clear 10 - - - -
20/03:30pm 15.2 WSW 19 25 1015.7 - 0.6 - Mostly clear 10 - - - -
20/03:00pm 15.3 SW 16 23 1015.3 R 0.6 Showers Mostly cloudy 9 - - - -
20/02:30pm 15.9 SW 16 22 1014.7 - 0.6 - Mostly clear 10 - - - -
20/02:15pm 15.7 WSW 17 27 1014.5 - 0.6 Showers Mostly clear 9 - - - -
20/02:00pm 16.0 WSW 14 23 1014.2 - 0.6 Showers Mostly cloudy 10 - - - -
20/01:30pm 16.4 SW 17 23 1014.1 - 0.6 - Mostly cloudy 10 - - - -
20/01:00pm 17.0 SW 16 23 1014.1 - 0.6 - Mostly cloudy 10 - - - -
20/12:50pm 17.1 WSW 18 25 1014.0 - 0.6 Showers Mostly cloudy 9 - - - -
20/12:30pm 17.5 WSW 18 26 1013.9 - 0.6 - Mostly clear 10 - - - -
20/12:10pm 17.3 WSW 19 29 1013.5 - 0.6 Showers Mostly cloudy 10 - - - -
20/12:00pm 17.9 WSW 19 26 1013.4 R 0.6 Distant precip. Mostly cloudy 30 - - - -
20/11:30am 17.2 WSW 17 25 1013.4 - 0.6 - Partly cloudy 10 - - - -
20/11:09am 17.0 SW 16 22 1013.3 - 0.4 Showers Partly cloudy 10 - - - -
20/11:00am 16.7 WSW 15 21 1013.3 - 0.4 - Partly cloudy 10 - - - -
20/10:54am 16.6 WSW 13 19 1013.3 - 0.4 - Partly cloudy 10 - - - -
20/10:30am 17.1 WSW 15 22 1013.2 - 0.4 Showers Mostly cloudy 6 - - - -
20/10:14am 16.5 SW 15 20 1013.2 - 0.2 Showers Mostly cloudy 2 - - - -
20/10:00am 15.9 SW 13 18 1013.2 - 0.2 Showers Mostly cloudy 5 - - - -
20/09:30am 16.1 SW 12 16 1013.1 - 0.2 Drizzle Mostly cloudy 5 - - - -
20/09:00am 16.0 SSW 12 16 1012.9 R 44.0 Showers Mostly cloudy 4 - - - -
20/08:30am 15.2 SSW 11 15 1012.8 - 44.0 Drizzle Mostly cloudy 6 - - - -
20/08:16am 15.1 SSW 9 14 1012.8 - 44.0 Drizzle Mostly cloudy 10 - - - -
20/08:00am 14.9 SSW 9 13 1012.8 - 44.0 Drizzle Mostly cloudy 7 - - - -
20/07:30am 14.9 S 6 9 1012.8 - 44.0 Rain Cloudy 6 - - - -
20/07:00am 14.4 S 7 10 1012.5 - 44.0 Rain Mostly cloudy 10 - - - -
20/06:30am 14.2 S 8 13 1012.2 - 43.6 Rain Mostly cloudy 9 - - - -
20/06:00am 14.3 SSE 8 13 1012.0 R 43.2 Rain Cloudy 6 - - - -
20/05:30am 14.3 SSE 9 14 1011.9 - 42.8 - Partly cloudy 9 - - - -
20/05:00am 14.4 SSE 10 16 1011.4 - 42.2 - Partly cloudy 10 - - - -
20/04:30am 14.6 SSE 12 17 1011.1 - 42.0 - Cloudy 10 - - - -
20/04:00am 14.8 SE 12 19 1010.8 - 42.0 - Partly cloudy 9 - - - -
20/03:51am 14.8 SE 11 19 1010.8 - 42.0 - Partly cloudy 10 - - - -
20/03:30am 14.9 SE 12 16 1010.6 - 41.8 - Cloudy 5 - - - -
20/03:25am 14.9 SE 12 15 1010.6 - 41.6 - Cloudy 6 - - - -
20/03:20am 14.9 SE 13 19 1010.6 - 41.6 - Cloudy 8 - - - -
20/03:00am 15.0 SE 13 17 1010.6 - 41.6 - Mostly cloudy 4 - - - -
20/02:30am 15.3 SE 12 16 1010.8 - 40.6 - Partly cloudy 7 - - - -
20/02:26am 15.3 SE 12 16 1010.8 - 40.6 - Partly cloudy 6 - - - -
20/02:17am 15.3 SE 13 17 1010.8 - 40.6 - Partly cloudy 8 - - - -
20/02:00am 15.4 SE 15 19 1010.8 - 40.6 - Partly cloudy 6 - - - -
20/01:58am 15.5 SE 15 19 1010.8 - 40.6 - Cloudy 6 - - - -
20/01:30am 15.5 ESE 14 20 1010.8 - 40.6 - Cloudy 9 - - - -
20/01:15am 15.3 SE 12 18 1010.9 - 40.6 - Cloudy 9 - - - -
20/01:00am 15.1 ESE 13 17 1010.8 - 40.6 - Cloudy 6 - - - -
20/12:30am 14.8 SSE 13 21 1011.0 - 39.6 - Cloudy 5 - - - -
20/12:00am 14.8 SE 17 25 1011.2 - 38.8 - Mostly cloudy 5 - - - -
 
Date/Time
WST
Temp

°C
Wind Pressure Rain
since 9am
mm
Weather Cloud Vis
km
Sea
Height
m
Swell
Dir
 
Speed
knots
Gust
knots
hPa Trend Height
m
Period
s
Dir
19/11:36pm 14.7 SE 16 26 1011.3 - 38.4 - Cloudy 3 - - - -
19/11:30pm 14.6 SE 18 25 1011.3 - 38.2 - Cloudy 4 - - - -
19/11:00pm 13.9 S 12 19 1011.7 - 37.2 - Cloudy 3 - - - -
19/10:46pm 13.4 S 14 22 1012.2 - 35.6 - Partly cloudy 1 - - - -
19/10:36pm 13.4 S 16 23 1012.5 - 33.8 - Partly cloudy - - - - -
19/10:30pm 13.2 S 15 22 1012.7 - 32.8 - Partly cloudy - - - - -
19/10:00pm 13.1 S 13 21 1013.8 - 28.4 - Partly cloudy 4 - - - -
19/09:30pm 13.0 S 15 23 1014.5 - 26.0 - Partly cloudy 5 - - - -
19/09:06pm 12.8 S 15 25 1015.0 - 25.0 - Partly cloudy 4 - - - -
19/09:04pm 12.8 S 14 25 1015.0 - 24.8 - Partly cloudy - - - - -
19/09:00pm 12.8 S 15 25 1015.2 - 24.6 - Cloudy - - - - -
19/08:58pm 12.8 S 15 25 1015.1 - 24.4 - Partly cloudy - - - - -
19/08:46pm 12.7 S 14 22 1015.4 - 23.8 - Partly cloudy 5 - - - -
19/08:30pm 12.6 S 13 19 1015.7 - 23.4 - Partly cloudy - - - - -
19/08:00pm 12.4 S 13 18 1015.9 - 21.8 - Partly cloudy - - - - -
19/07:30pm 12.3 S 13 19 1016.2 - 19.8 - Partly cloudy - - - - -
19/07:00pm 12.3 S 13 19 1016.2 - 18.0 - Partly cloudy - - - - -
19/06:30pm 12.2 S 13 18 1016.4 - 15.8 - Partly cloudy - - - - -
19/06:00pm 12.2 S 11 17 1016.6 - 13.8 - Cloudy - - - - -
19/05:30pm 12.3 SSE 11 17 1016.8 - 11.2 - Partly cloudy - - - - -
19/05:00pm 12.3 SSE 12 18 1017.1 - 9.6 Rain Mostly cloudy 5 - - - -
19/04:30pm 12.2 SE 15 21 1017.1 - 7.2 Rain Mostly cloudy 7 - - - -
19/04:00pm 12.1 SE 14 18 1017.0 - 5.6 Rain Mostly cloudy 5 - - - -
19/03:30pm 12.2 SE 16 24 1016.6 - 4.2 Showers Partly cloudy 3 - - - -
19/03:00pm 12.2 SE 15 23 1016.6 F 3.2 Rain Cloudy 5 - - - -
19/02:42pm 12.3 SE 17 28 1016.6 - 3.0 Showers Mostly clear 5 - - - -
19/02:34pm 12.5 SE 17 28 1016.8 - 2.8 Rain Mostly clear 9 - - - -
19/02:30pm 12.4 SE 17 23 1016.9 - 2.8 Rain Mostly clear 9 - - - -
19/02:00pm 12.5 SE 17 26 1017.2 - 2.8 Rain Mostly clear 8 - - - -
19/01:43pm 12.4 SE 19 25 1017.4 - 2.2 Showers Mostly clear 6 - - - -
19/01:30pm 12.4 SE 16 22 1017.5 - 2.0 Rain Mostly clear 8 - - - -
19/01:00pm 12.2 SE 20 27 1018.2 - 1.6 Rain Mostly clear 8 - - - -
19/12:38pm 12.1 ESE 18 25 1018.4 - 1.2 Rain Mostly clear 8 - - - -
19/12:30pm 12.0 ESE 18 23 1018.9 - 1.0 Rain Mostly clear 6 - - - -
19/12:00pm 12.2 ESE 17 25 1019.3 F 0.4 Showers Cloudy 5 - - - -
19/11:45am 12.3 ESE 17 22 1019.7 - 0.4 Rain Mostly clear 8 - - - -
19/11:30am 12.1 ESE 17 25 1020.1 - 0.4 Rain Partly cloudy 7 - - - -
19/11:16am 12.4 ESE 17 27 1019.8 - 0.2 Rain Partly cloudy 5 - - - -
19/11:13am 12.4 ESE 17 27 1019.7 - 0.2 Rain Mostly clear 5 - - - -
19/11:00am 12.5 ESE 18 23 1019.7 - 0.2 Rain Mostly clear 7 - - - -
19/10:33am 12.8 ESE 18 28 1020.2 - 0.2 Showers Mostly clear 5 - - - -
19/10:30am 13.1 ESE 18 24 1020.1 - 0.2 Showers Mostly clear 5 - - - -
19/10:06am 12.1 ESE 17 27 1020.5 - 0.2 Showers Mostly clear 9 - - - -
19/10:00am 12.3 ESE 19 27 1020.6 - 0.2 Showers Mostly clear 4 - - - -
19/09:59am 12.5 ESE 20 25 1020.5 - 0.0 Showers Mostly clear 4 - - - -
19/09:46am 12.5 ESE 16 26 1020.5 - 0.0 Showers Mostly clear 5 - - - -
19/09:30am 12.7 ESE 15 23 1020.6 - 0.0 Showers Mostly clear 6 - - - -
19/09:23am 13.4 SE 15 25 1020.6 - 0.0 Showers Mostly clear 9 - - - -
19/09:00am 13.3 ESE 19 25 1020.7 F 3.2 Distant precip. Cloudy 15 - - - -
19/08:43am 13.4 ESE 17 27 1020.7 - 3.2 - Mostly clear 10 - - - -
19/08:30am 13.2 ESE 15 22 1021.0 - 3.2 - Mostly clear 10 - - - -
19/08:00am 12.8 SE 17 23 1021.0 - 3.2 Showers Partly cloudy 10 - - - -
19/07:41am 13.0 ESE 17 27 1021.1 - 3.2 - Partly cloudy 10 - - - -
19/07:30am 13.0 ESE 18 25 1021.0 - 3.2 - Mostly cloudy 10 - - - -
19/07:00am 12.9 ESE 16 26 1020.9 - 3.2 - Partly cloudy 10 - - - -
19/06:30am 13.2 ESE 16 23 1020.6 - 3.2 - Partly cloudy 10 - - - -
19/06:00am 12.9 ESE 15 21 1020.3 F 3.2 Fine Mostly cloudy 20 - - - -
19/05:30am 12.8 ESE 14 20 1020.2 - 3.2 - Cloudy 10 - - - -
19/05:00am 12.8 ESE 12 18 1020.1 - 3.2 - Partly cloudy 10 - - - -
19/04:30am 12.7 ESE 13 19 1019.9 - 3.2 - Partly cloudy 10 - - - -
19/04:00am 12.5 ESE 13 17 1020.0 - 3.2 - Cloudy 10 - - - -
19/03:30am 12.3 ESE 13 18 1020.2 - 3.2 - Partly cloudy 10 - - - -
19/03:00am 12.1 ESE 12 15 1020.4 - 3.2 - Mostly clear 10 - - - -
19/02:30am 12.1 ESE 11 15 1020.1 - 3.2 - Partly cloudy 10 - - - -
19/02:00am 11.7 ESE 9 13 1020.1 - 3.2 - Partly cloudy 10 - - - -
19/01:30am 11.4 E 13 17 1020.5 - 3.2 - Partly cloudy 10 - - - -
19/01:11am 11.3 E 13 18 1020.8 - 3.2 - Partly cloudy 10 - - - -
19/01:00am 11.2 E 12 17 1021.1 - 3.2 - Partly cloudy 6 - - - -
19/12:34am 11.6 ESE 15 21 1021.2 - 2.8 - Partly cloudy 5 - - - -
19/12:30am 11.7 ESE 14 19 1021.2 - 2.8 - Partly cloudy 10 - - - -
19/12:28am 11.7 ESE 13 19 1021.1 - 2.8 - Partly cloudy 10 - - - -
19/12:00am 11.5 ESE 17 22 1021.4 - 2.8 - Cloudy 3 - - - -
 
Date/Time
WST
Temp

°C
Wind Pressure Rain
since 9am
mm
Weather Cloud Vis
km
Sea
Height
m
Swell
Dir
 
Speed
knots
Gust
knots
hPa Trend Height
m
Period
s
Dir
18/11:30pm 11.8 ESE 13 17 1021.3 - 2.2 - Partly cloudy 5 - - - -
18/11:29pm 11.9 ESE 12 17 1021.3 - 2.2 - Partly cloudy 6 - - - -
18/11:25pm 12.1 ESE 12 18 1021.2 - 2.2 - Partly cloudy 10 - - - -
18/11:06pm 12.1 ESE 18 27 1021.3 - 2.2 - Partly cloudy 6 - - - -
18/11:00pm 13.0 ESE 16 27 1021.3 - 2.2 - Partly cloudy 10 - - - -
18/10:59pm 13.2 ESE 15 27 1021.3 - 2.2 - Partly cloudy 10 - - - -
18/10:30pm 13.1 ESE 13 19 1020.9 - 2.2 - Partly cloudy 10 - - - -
18/10:00pm 12.7 ESE 15 20 1021.0 - 2.2 - Partly cloudy 10 - - - -
18/09:30pm 12.2 ESE 12 16 1021.0 - 2.2 - Partly cloudy 10 - - - -
18/09:00pm 12.8 ESE 13 19 1021.2 - 2.2 - Partly cloudy 10 - - - -
18/08:30pm 13.0 SE 12 16 1020.8 - 2.2 - Partly cloudy 10 - - - -
18/08:00pm 12.6 ESE 12 16 1020.6 - 2.2 - Partly cloudy 10 - - - -
18/07:33pm 12.8 SE 15 25 1020.3 - 1.8 - Partly cloudy 10 - - - -
18/07:30pm 13.0 SE 13 16 1020.3 - 1.8 - Partly cloudy 10 - - - -
18/07:00pm 13.2 SE 12 17 1019.8 - 1.8 - Partly cloudy 10 - - - -
18/06:30pm 13.1 SE 13 20 1019.3 - 1.8 - Cloudy 10 - - - -
18/06:00pm 13.4 SE 12 19 1018.8 - 1.8 - Cloudy 10 - - - -
18/05:30pm 13.0 SE 11 17 1018.3 - 1.8 - Cloudy 10 - - - -
18/05:00pm 12.7 SE 11 16 1018.3 - 1.8 - Mostly clear 10 - - - -
18/04:55pm 12.4 SSE 11 16 1018.4 - 1.8 - Mostly clear 10 - - - -
18/04:30pm 12.3 SE 15 22 1018.3 - 1.4 Showers Partly cloudy 4 - - - -
18/04:24pm 12.5 SE 16 22 1018.2 - 1.0 Showers Partly cloudy 5 - - - -
18/04:00pm 14.0 SE 14 19 1017.9 - 0.8 - Mostly clear 10 - - - -
18/03:30pm 13.8 SE 14 20 1017.9 - 0.8 - Mostly clear 10 - - - -
18/03:00pm 13.8 SE 11 18 1018.0 R 0.8 Showers Mostly cloudy 15 - - - -
18/02:52pm 13.1 ESE 9 13 1018.0 - 0.8 - Mostly clear 10 - - - -
18/02:30pm 12.6 SE 15 22 1017.9 - 0.6 Showers Mostly cloudy 3 - - - -
18/02:24pm 13.3 SE 13 22 1017.8 - 0.6 Showers Partly cloudy 5 - - - -
18/02:00pm 14.4 SE 13 16 1017.7 - 0.6 - Partly cloudy 10 - - - -
18/01:30pm 13.8 SSE 12 17 1017.9 - 0.6 - Mostly clear 10 - - - -
18/01:00pm 13.2 SE 14 21 1018.0 - 0.6 Rain Partly cloudy 10 - - - -
18/12:30pm 13.2 SSE 10 14 1017.6 - 0.6 - Mostly clear 10 - - - -
18/12:00pm 12.2 SSE 12 19 1017.6 R 0.6 Distant precip. Cloudy 20 - - - -
18/11:30am 14.0 SE 10 15 1017.2 - 0.6 - Mostly clear 10 - - - -
18/11:00am 13.5 SE 11 18 1017.2 - 0.6 - Mostly clear 10 - - - -
18/10:30am 12.7 SE 12 16 1017.3 - 0.6 - Mostly clear 10 - - - -
18/10:20am 12.0 SE 11 16 1017.2 - 0.6 - Mostly clear 10 - - - -
18/10:00am 12.1 SSE 11 16 1017.3 - 0.2 Showers Mostly clear 3 - - - -
18/09:41am 12.1 SE 12 16 1017.2 - 0.0 Showers Mostly clear 5 - - - -
18/09:30am 12.3 SSE 11 16 1017.1 - 0.0 Rain Mostly clear 10 - - - -
18/09:00am 12.5 SE 9 12 1017.2 R 5.0 Rain Cloudy 15 - - - -
18/08:30am 12.5 SE 11 17 1016.9 - 4.8 Rain Mostly clear 10 - - - -
18/07:30am 12.1 SE 9 11 1016.9 - 4.6 - Mostly clear 10 - - - -
18/07:00am 11.8 SE 8 10 1016.9 - 4.6 Rain Mostly clear 10 - - - -
18/06:30am 11.7 ESE 8 11 1016.7 - 4.0 Rain Mostly clear 10 - - - -
18/06:00am 12.0 ESE 9 12 1016.5 F 2.6 Showers Cloudy 9 - - - -
18/05:30am 12.1 ESE 8 10 1016.5 - 1.8 - Partly cloudy 10 - - - -

Other Formats:

Comma delimited format used in spreadsheet applications
http://www.bom.gov.au/fwo/IDW60701/IDW60701.94802.axf

JavaScript Object Notation format (JSON) in row-major order
http://www.bom.gov.au/fwo/IDW60701/IDW60701.94802.json